Página principal
METAR-TAF:

METAR-TAF

Aeroportos :

Vientiane, Laos

Aeroporto Internacional de Wattay

latitude: 17-57N, longitude: 102-34E, altura: 171 m

Observação actual do tempo

O boletim foi feito há 1 hora e 19 minutos, às 01:00 UTC
Vento 2 kt de norte
Temperatura 23°C
Humidade 83%
Pressão 1018 hPa
Visibilidade: 5000 m
Nuvens fragmentadasa uma altura de 4000 ft
neblina

METAR: VLVT 280100Z 36002KT 5000 BR BKN040 23/20 Q1018 NOSIG

Hora: 09:19 (02:19 UTC)

Previsão

O boletim foi feito há 3 horas e 19 minutos, às 23:00 UTC
Previsão válida de 28 às 00 UTC a 28 às 24 UTC
Vento 6 kt de oeste
Visibilidade: 8000 m
Nuvens dispersasa uma altura de 2000 ft
Nuvens dispersasa uma altura de 4000 ft
Temporariamente
de 28 às 12 UTC a 28 às 16 UTC
Visibilidade: 4000 m
Nuvens dispersasa uma altura de 2000 ft
Nuvens fragmentadasa uma altura de 4000 ft
Nuvens fragmentadasa uma altura de 9000 ft
chuva fraca

TAF: VLVT 272300Z 2800/2824 27006KT 8000 SCT020 SCT040 TEMPO 2812/2816 4000 -RA SCT020 BKN040 BKN090

Observações e previsões do tempo de mais de 4000 aeroportos (mensagens METAR e TAF).

As estações disponíveis são os pontos amarelos e vermelhos sobre o mapa.

Mova o rato sobre o mapa para ver o nome da estação.

Depois clique no ponto para visualizar as observações e previsões meteorológicas.

Para alterar o mapa : clique nos botões verdes com uma cruz preta para aumentar o zoom; no botão verde com uma pitada de zoom; ou nas setas verdes para mapas adjacentes.


METAR-TAF: